createdAt,value
2018-06-11T00:02:25.668Z,18.80
2018-06-11T00:04:54.623Z,18.80
2018-06-11T00:07:22.997Z,18.70
2018-06-11T00:09:51.384Z,18.70
2018-06-11T00:12:19.736Z,18.70
2018-06-11T00:14:48.104Z,18.70
2018-06-11T00:17:16.590Z,18.70
2018-06-11T00:19:45.235Z,18.60
2018-06-11T00:22:13.607Z,18.70
2018-06-11T00:24:42.323Z,18.70
2018-06-11T00:27:11.281Z,18.70
2018-06-11T00:29:39.994Z,18.70
2018-06-11T00:32:09.071Z,18.70
2018-06-11T00:34:37.984Z,18.60
2018-06-11T00:37:06.831Z,18.60
2018-06-11T00:39:35.203Z,18.60
2018-06-11T00:42:03.859Z,18.60
2018-06-11T00:44:32.279Z,18.60
2018-06-11T00:47:02.589Z,18.60
2018-06-11T00:49:31.187Z,18.60
2018-06-11T00:51:59.900Z,18.60
2018-06-11T00:54:28.595Z,18.60
2018-06-11T00:56:56.943Z,18.30
2018-06-11T00:59:25.623Z,18.10
2018-06-11T01:01:55.444Z,17.90
2018-06-11T01:04:24.048Z,18.00
2018-06-11T01:06:52.416Z,18.10
2018-06-11T01:09:20.767Z,18.10
2018-06-11T01:11:49.420Z,18.20
2018-06-11T01:14:17.795Z,18.20
2018-06-11T01:16:46.376Z,18.20
2018-06-11T01:21:43.147Z,18.10
2018-06-11T01:24:11.496Z,18.20
2018-06-11T01:26:39.868Z,18.20
2018-06-11T01:29:08.287Z,18.30
2018-06-11T01:31:36.639Z,18.40
2018-06-11T01:34:05.012Z,18.40
2018-06-11T01:36:33.651Z,18.30
2018-06-11T01:39:01.996Z,18.30
2018-06-11T01:41:30.370Z,18.30
2018-06-11T01:46:26.787Z,18.30
2018-06-11T01:48:55.159Z,18.00
2018-06-11T01:51:24.240Z,18.00
2018-06-11T01:53:53.167Z,18.00
2018-06-11T01:56:21.536Z,18.00
2018-06-11T01:58:50.184Z,17.90
2018-06-11T02:01:18.555Z,17.90
2018-06-11T02:03:47.171Z,18.00
2018-06-11T02:06:16.042Z,17.90
2018-06-11T02:08:44.439Z,18.00
2018-06-11T02:11:13.058Z,18.00
2018-06-11T02:13:41.784Z,17.90
2018-06-11T02:16:10.135Z,17.90
2018-06-11T02:18:39.051Z,18.00
2018-06-11T02:21:07.447Z,18.00
2018-06-11T02:23:36.028Z,18.00
2018-06-11T02:26:04.483Z,18.00
2018-06-11T02:28:33.386Z,18.00
2018-06-11T02:31:01.739Z,17.90
2018-06-11T02:33:30.163Z,17.90
2018-06-11T02:35:58.535Z,17.80
2018-06-11T02:38:29.109Z,17.70
2018-06-11T02:40:59.558Z,17.60
2018-06-11T02:43:29.855Z,17.70
2018-06-11T02:46:00.637Z,17.50
2018-06-11T02:48:30.948Z,17.40
2018-06-11T02:51:01.836Z,17.40
2018-06-11T02:53:31.472Z,17.20
2018-06-11T02:56:00.391Z,17.00
2018-06-11T02:58:28.812Z,17.00
2018-06-11T03:00:57.215Z,17.00
2018-06-11T03:03:25.583Z,17.00
2018-06-11T03:05:55.339Z,17.10
2018-06-11T03:08:23.696Z,17.10
2018-06-11T03:10:52.126Z,17.10
2018-06-11T03:13:20.537Z,17.10
2018-06-11T03:15:49.174Z,17.10
2018-06-11T03:18:17.560Z,17.10
2018-06-11T03:20:46.555Z,17.20
2018-06-11T03:23:14.902Z,17.30
2018-06-11T03:25:43.534Z,17.30
2018-06-11T03:28:11.900Z,17.40
2018-06-11T03:30:40.295Z,17.40
2018-06-11T03:33:08.823Z,17.50
2018-06-11T03:35:37.178Z,17.50
2018-06-11T03:38:05.949Z,17.50
2018-06-11T03:40:34.335Z,17.50
2018-06-11T03:43:02.715Z,17.40
2018-06-11T03:45:31.436Z,17.40
2018-06-11T03:48:00.161Z,17.40
2018-06-11T03:50:28.545Z,17.40
2018-06-11T03:52:57.303Z,17.50
2018-06-11T03:55:26.471Z,17.50
2018-06-11T03:57:55.375Z,17.60
2018-06-11T04:00:23.756Z,17.60
2018-06-11T04:02:52.779Z,17.60
2018-06-11T04:05:21.443Z,17.60
2018-06-11T04:07:50.323Z,17.50
2018-06-11T04:10:18.960Z,17.60
2018-06-11T04:12:47.340Z,17.70
2018-06-11T04:15:15.687Z,17.70
2018-06-11T04:17:44.055Z,17.70
2018-06-11T04:20:12.419Z,17.80
2018-06-11T04:22:41.326Z,17.80
2018-06-11T04:25:09.919Z,17.80
2018-06-11T04:27:38.607Z,18.00
2018-06-11T04:30:07.508Z,18.30
2018-06-11T04:32:37.672Z,18.40
2018-06-11T04:35:06.848Z,18.50
2018-06-11T04:37:35.245Z,18.60
2018-06-11T04:40:03.679Z,18.60
2018-06-11T04:42:32.532Z,18.60
2018-06-11T04:45:00.887Z,18.60
2018-06-11T04:47:29.291Z,18.60
2018-06-11T04:49:57.645Z,18.60
2018-06-11T04:52:26.251Z,18.60
2018-06-11T04:54:55.146Z,18.60
2018-06-11T04:57:24.060Z,18.70
2018-06-11T04:59:52.427Z,18.80
2018-06-11T05:02:21.139Z,18.90
2018-06-11T05:04:50.088Z,19.00
2018-06-11T05:07:18.695Z,18.90
2018-06-11T05:09:47.387Z,19.00
2018-06-11T05:12:16.354Z,19.50
2018-06-11T05:14:44.710Z,19.80
2018-06-11T05:17:13.140Z,20.00
2018-06-11T05:19:42.027Z,20.30
2018-06-11T05:22:10.380Z,21.10
2018-06-11T05:24:39.015Z,21.50
2018-06-11T05:27:07.363Z,22.00
2018-06-11T05:29:35.733Z,22.90
2018-06-11T05:32:04.099Z,23.00
2018-06-11T05:34:32.474Z,23.20
2018-06-11T05:37:00.850Z,23.30
2018-06-11T05:39:29.691Z,23.30
2018-06-11T05:41:58.067Z,23.30
2018-06-11T05:44:26.455Z,23.30
2018-06-11T05:46:55.075Z,23.20
2018-06-11T05:49:23.443Z,23.40
2018-06-11T05:51:51.800Z,23.80
2018-06-11T05:54:20.427Z,24.10
2018-06-11T05:56:49.351Z,24.10
2018-06-11T05:59:17.706Z,24.20
2018-06-11T06:01:46.063Z,24.40
2018-06-11T06:04:14.767Z,24.40
2018-06-11T06:06:43.380Z,24.80
2018-06-11T06:09:11.751Z,24.80
2018-06-11T06:11:40.104Z,24.90
2018-06-11T06:14:08.757Z,24.90
2018-06-11T06:16:37.406Z,25.20
2018-06-11T06:21:41.043Z,25.30
2018-06-11T06:24:09.657Z,25.50
2018-06-11T06:26:38.277Z,25.60
2018-06-11T06:29:06.891Z,25.60
2018-06-11T06:31:35.263Z,25.80
2018-06-11T06:34:03.949Z,25.90
2018-06-11T06:36:32.306Z,26.10
2018-06-11T06:39:00.955Z,26.00
2018-06-11T06:41:29.328Z,26.20
2018-06-11T06:43:57.683Z,26.20
2018-06-11T06:46:26.040Z,25.70
2018-06-11T06:48:54.451Z,25.60
2018-06-11T06:51:23.055Z,25.40
2018-06-11T06:53:51.419Z,25.30
2018-06-11T06:56:20.117Z,25.20
2018-06-11T06:58:48.471Z,25.10
2018-06-11T07:01:16.834Z,25.00
2018-06-11T07:03:45.192Z,24.90
2018-06-11T07:06:13.551Z,24.80
2018-06-11T07:08:41.927Z,24.70
2018-06-11T07:11:10.585Z,24.70
2018-06-11T07:13:39.327Z,24.70
2018-06-11T07:16:08.131Z,24.60
2018-06-11T07:18:36.483Z,24.60
2018-06-11T07:21:04.876Z,24.50
2018-06-11T07:23:33.255Z,24.60
2018-06-11T07:26:01.619Z,24.70
2018-06-11T07:28:30.077Z,24.50
2018-06-11T07:30:58.975Z,24.20
2018-06-11T07:33:27.347Z,24.00
2018-06-11T07:35:56.004Z,24.00
2018-06-11T07:38:24.968Z,24.30
2018-06-11T07:40:53.653Z,24.50
2018-06-11T07:43:22.029Z,25.00
2018-06-11T07:45:50.383Z,25.10
2018-06-11T07:48:19.039Z,24.90
2018-06-11T07:50:47.705Z,24.70
2018-06-11T07:53:16.048Z,24.90
2018-06-11T07:55:44.723Z,25.00
2018-06-11T07:58:13.135Z,25.00
2018-06-11T08:00:41.731Z,24.90
2018-06-11T08:03:10.634Z,25.10
2018-06-11T08:05:39.539Z,25.30
2018-06-11T08:08:07.907Z,25.10
2018-06-11T08:10:36.793Z,25.30
2018-06-11T08:13:05.170Z,25.30
2018-06-11T08:15:33.856Z,25.40
2018-06-11T08:18:02.232Z,25.30
2018-06-11T08:20:30.907Z,25.30
2018-06-11T08:22:59.916Z,25.30
2018-06-11T08:25:28.571Z,25.10
2018-06-11T08:27:56.937Z,25.10
2018-06-11T08:30:25.292Z,25.10
2018-06-11T08:32:53.977Z,25.20
2018-06-11T08:37:50.719Z,25.20
2018-06-11T08:40:19.088Z,25.20
2018-06-11T08:42:47.451Z,25.30
2018-06-11T08:45:16.059Z,25.40
2018-06-11T08:47:45.043Z,25.50
2018-06-11T08:50:13.395Z,25.60
2018-06-11T08:52:42.097Z,25.60
2018-06-11T08:55:10.712Z,25.60
2018-06-11T09:00:08.156Z,25.90
2018-06-11T09:02:36.732Z,26.10
2018-06-11T09:05:05.315Z,26.30
2018-06-11T09:07:33.919Z,26.40
2018-06-11T09:10:02.656Z,26.90
2018-06-11T09:12:31.159Z,27.10
2018-06-11T09:14:59.523Z,27.50
2018-06-11T09:17:27.898Z,28.10
2018-06-11T09:19:56.268Z,27.90
2018-06-11T09:22:24.899Z,27.70
2018-06-11T09:24:53.346Z,27.70
2018-06-11T09:27:22.555Z,28.00
2018-06-11T09:29:51.155Z,27.80
2018-06-11T09:32:19.840Z,27.60
2018-06-11T09:34:48.443Z,27.60
2018-06-11T09:37:16.864Z,27.10
2018-06-11T09:39:45.246Z,27.60
2018-06-11T09:42:13.604Z,28.10
2018-06-11T09:44:42.243Z,28.40
2018-06-11T09:47:10.903Z,28.70
2018-06-11T09:49:39.516Z,29.10
2018-06-11T09:52:08.487Z,29.30
2018-06-11T09:54:36.855Z,29.00
2018-06-11T09:57:05.448Z,28.80
2018-06-11T09:59:34.131Z,28.40
2018-06-11T10:02:02.786Z,28.10
2018-06-11T10:04:31.630Z,28.10
2018-06-11T10:06:59.987Z,28.10
2018-06-11T10:09:28.363Z,27.90
2018-06-11T10:11:56.715Z,27.60
2018-06-11T10:14:25.080Z,27.60
2018-06-11T10:16:53.451Z,27.60
2018-06-11T10:19:22.153Z,27.50
2018-06-11T10:21:50.495Z,27.40
2018-06-11T10:24:19.097Z,27.30
2018-06-11T10:26:47.516Z,27.20
2018-06-11T10:29:16.200Z,27.10
2018-06-11T10:31:45.103Z,27.20
2018-06-11T10:34:14.804Z,27.20
2018-06-11T10:36:43.431Z,27.50
2018-06-11T10:41:39.983Z,27.70
2018-06-11T10:44:08.368Z,28.20
2018-06-11T10:46:37.247Z,28.80
2018-06-11T10:49:05.598Z,28.90
2018-06-11T10:51:34.196Z,28.30
2018-06-11T10:54:02.544Z,28.40
2018-06-11T10:56:31.176Z,28.90
2018-06-11T11:01:28.175Z,29.30
2018-06-11T11:03:57.203Z,30.00
2018-06-11T11:06:25.550Z,30.70
2018-06-11T11:08:54.459Z,30.10
2018-06-11T11:11:22.819Z,30.40
2018-06-11T11:13:51.458Z,31.00
2018-06-11T11:16:19.818Z,31.30
2018-06-11T11:18:48.503Z,31.80
2018-06-11T11:23:44.964Z,31.50
2018-06-11T11:26:13.571Z,31.40
2018-06-11T11:28:42.232Z,31.00
2018-06-11T11:31:10.555Z,31.00
2018-06-11T11:33:38.935Z,30.80
2018-06-11T11:36:07.643Z,30.90
2018-06-11T11:38:36.004Z,30.70
2018-06-11T11:41:04.393Z,30.30
2018-06-11T11:43:33.022Z,30.10
2018-06-11T11:48:29.472Z,29.80
2018-06-11T11:50:57.824Z,29.40
2018-06-11T11:53:26.693Z,29.30
2018-06-11T11:55:55.284Z,29.00
2018-06-11T11:58:24.106Z,28.90
2018-06-11T12:00:52.751Z,28.80
2018-06-11T12:03:21.219Z,28.90
2018-06-11T12:05:49.807Z,29.10
2018-06-11T12:08:18.423Z,29.40
2018-06-11T12:10:46.820Z,29.90
2018-06-11T12:13:15.175Z,30.30
2018-06-11T12:15:43.786Z,30.70
2018-06-11T12:18:12.159Z,31.10
2018-06-11T12:20:40.795Z,31.20
2018-06-11T12:23:09.142Z,31.10
2018-06-11T12:28:05.872Z,31.00
2018-06-11T12:30:34.465Z,31.10
2018-06-11T12:33:03.156Z,31.20
2018-06-11T12:37:59.563Z,31.10
2018-06-11T12:40:27.951Z,30.90
2018-06-11T12:42:56.319Z,31.30
2018-06-11T12:45:24.664Z,31.70
2018-06-11T12:47:53.392Z,32.00
2018-06-11T12:50:21.995Z,32.20
2018-06-11T12:52:50.451Z,32.10
2018-06-11T12:55:19.076Z,31.80
2018-06-11T12:57:47.431Z,31.80
2018-06-11T13:00:16.108Z,32.00
2018-06-11T13:02:44.820Z,32.10
2018-06-11T13:05:13.447Z,31.80
2018-06-11T13:07:42.080Z,31.60
2018-06-11T13:10:10.711Z,31.20
2018-06-11T13:12:39.092Z,31.10
2018-06-11T13:15:07.706Z,30.90
2018-06-11T13:17:36.899Z,30.90
2018-06-11T13:20:06.171Z,30.80
2018-06-11T13:22:36.604Z,30.30
2018-06-11T13:25:05.409Z,30.20
2018-06-11T13:27:34.546Z,30.20
2018-06-11T13:30:05.098Z,30.30
2018-06-11T13:32:33.488Z,30.20
2018-06-11T13:35:01.890Z,30.30
2018-06-11T13:37:31.319Z,30.40
2018-06-11T13:39:59.667Z,30.30
2018-06-11T13:42:28.172Z,30.00
2018-06-11T13:44:56.551Z,30.00
2018-06-11T13:47:26.153Z,29.80
2018-06-11T13:49:55.533Z,29.90
2018-06-11T13:52:24.769Z,29.90
2018-06-11T13:54:53.308Z,30.10
2018-06-11T13:57:22.592Z,30.30
2018-06-11T13:59:51.482Z,30.30
2018-06-11T14:02:21.869Z,30.40
2018-06-11T14:04:50.516Z,30.40
2018-06-11T14:07:19.663Z,30.40
2018-06-11T14:09:50.121Z,30.40
2018-06-11T14:12:19.336Z,30.30
2018-06-11T14:14:49.557Z,30.20
2018-06-11T14:17:18.527Z,30.30
2018-06-11T14:19:48.533Z,30.30
2018-06-11T14:22:17.863Z,30.20
2018-06-11T14:24:47.256Z,30.40
2018-06-11T14:27:17.285Z,30.40
2018-06-11T14:29:45.659Z,30.40
2018-06-11T14:32:15.103Z,30.30
2018-06-11T14:34:43.548Z,30.10
2018-06-11T14:37:12.327Z,30.00
2018-06-11T14:39:41.619Z,30.00
2018-06-11T14:42:10.430Z,30.10
2018-06-11T14:44:39.784Z,30.20
2018-06-11T14:47:09.665Z,30.10
2018-06-11T14:49:38.656Z,30.10
2018-06-11T14:52:07.168Z,30.10
2018-06-11T14:54:36.795Z,30.00
2018-06-11T14:57:05.164Z,29.90
2018-06-11T14:59:34.537Z,29.60
2018-06-11T15:02:02.952Z,29.40
2018-06-11T15:04:31.307Z,29.20
2018-06-11T15:07:00.338Z,29.10
2018-06-11T15:09:31.033Z,29.00
2018-06-11T15:11:59.836Z,28.80
2018-06-11T15:14:28.204Z,28.70
2018-06-11T15:16:56.692Z,28.50
2018-06-11T15:19:25.335Z,28.30
2018-06-11T15:21:53.975Z,28.20
2018-06-11T15:24:22.374Z,28.00
2018-06-11T15:26:50.751Z,27.80
2018-06-11T15:29:19.448Z,27.60
2018-06-11T15:31:48.439Z,27.50
2018-06-11T15:34:16.880Z,27.30
2018-06-11T15:36:45.266Z,27.20
2018-06-11T15:39:13.625Z,27.00
2018-06-11T15:41:41.984Z,26.80
2018-06-11T15:44:10.670Z,26.70
2018-06-11T15:46:39.492Z,26.60
2018-06-11T15:49:08.187Z,26.40
2018-06-11T15:51:36.567Z,26.30
2018-06-11T15:54:04.931Z,26.30
2018-06-11T15:56:33.855Z,26.20
2018-06-11T15:59:02.567Z,26.20
2018-06-11T16:03:59.584Z,26.30
2018-06-11T16:06:27.987Z,26.30
2018-06-11T16:08:56.331Z,26.20
2018-06-11T16:11:24.683Z,26.10
2018-06-11T16:13:53.069Z,25.90
2018-06-11T16:16:21.711Z,25.80
2018-06-11T16:18:50.658Z,25.60
2018-06-11T16:21:19.271Z,25.50
2018-06-11T16:23:47.873Z,25.10
2018-06-11T16:26:16.229Z,24.90
2018-06-11T16:28:44.892Z,24.60
2018-06-11T16:31:13.252Z,24.40
2018-06-11T16:33:41.835Z,24.20
2018-06-11T16:36:10.500Z,23.90
2018-06-11T16:38:38.897Z,23.50
2018-06-11T16:41:07.259Z,23.00
2018-06-11T16:43:35.923Z,22.80
2018-06-11T16:46:04.652Z,22.60
2018-06-11T16:48:33.348Z,22.40
2018-06-11T16:51:02.311Z,22.30
2018-06-11T16:53:30.924Z,22.00
2018-06-11T16:55:59.295Z,21.80
2018-06-11T16:58:30.343Z,21.80
2018-06-11T17:00:59.756Z,21.80
2018-06-11T17:03:29.469Z,21.80
2018-06-11T17:05:58.094Z,21.60
2018-06-11T17:10:57.407Z,21.30
2018-06-11T17:13:26.683Z,21.30
2018-06-11T17:15:56.271Z,21.20
2018-06-11T17:18:24.943Z,21.20
2018-06-11T17:20:53.323Z,21.20
2018-06-11T17:23:21.679Z,21.20
2018-06-11T17:25:50.195Z,21.20
2018-06-11T17:28:18.571Z,21.10
2018-06-11T17:30:47.183Z,21.10
2018-06-11T17:33:15.553Z,21.10
2018-06-11T17:35:44.748Z,21.00
2018-06-11T17:38:13.103Z,21.00
2018-06-11T17:40:41.740Z,20.90
2018-06-11T17:43:10.443Z,20.90
2018-06-11T17:45:38.817Z,20.70
2018-06-11T17:48:07.192Z,20.80
2018-06-11T17:50:38.457Z,20.70
2018-06-11T17:53:07.776Z,20.70
2018-06-11T17:55:36.659Z,20.70
2018-06-11T17:58:05.057Z,20.70
2018-06-11T18:00:33.813Z,20.60
2018-06-11T18:03:02.668Z,20.60
2018-06-11T18:05:31.113Z,20.60
2018-06-11T18:07:59.983Z,20.50
2018-06-11T18:10:28.679Z,20.50
2018-06-11T18:12:57.051Z,20.40
2018-06-11T18:15:25.743Z,20.20
2018-06-11T18:17:54.206Z,20.10
2018-06-11T18:20:22.607Z,19.90
2018-06-11T18:22:50.989Z,19.90
2018-06-11T18:25:19.573Z,20.00
2018-06-11T18:27:47.955Z,20.00
2018-06-11T18:30:16.332Z,20.10
2018-06-11T18:32:44.716Z,20.20
2018-06-11T18:35:13.375Z,20.10
2018-06-11T18:37:42.068Z,20.00
2018-06-11T18:40:10.496Z,20.10
2018-06-11T18:42:39.019Z,20.30
2018-06-11T18:45:07.404Z,20.40
2018-06-11T18:47:35.775Z,20.40
2018-06-11T18:50:04.587Z,20.20
2018-06-11T18:52:33.248Z,20.10
2018-06-11T18:55:01.947Z,19.90
2018-06-11T18:57:30.459Z,19.90
2018-06-11T18:59:59.304Z,20.00
2018-06-11T19:02:27.701Z,20.10
2018-06-11T19:04:56.418Z,19.70
2018-06-11T19:07:24.777Z,19.70
2018-06-11T19:09:53.262Z,19.70
2018-06-11T19:12:21.690Z,19.60
2018-06-11T19:14:50.325Z,19.70
2018-06-11T19:17:19.427Z,19.80
2018-06-11T19:19:47.813Z,19.80
2018-06-11T19:22:16.171Z,19.70
2018-06-11T19:24:44.849Z,19.70
2018-06-11T19:27:13.542Z,19.80
2018-06-11T19:29:42.461Z,19.80
2018-06-11T19:32:10.839Z,19.90
2018-06-11T19:34:39.495Z,20.00
2018-06-11T19:37:07.883Z,19.90
2018-06-11T19:39:37.191Z,19.80
2018-06-11T19:42:05.664Z,19.90
2018-06-11T19:44:34.032Z,19.90
2018-06-11T19:47:02.712Z,20.00
2018-06-11T19:49:31.134Z,20.00
2018-06-11T19:51:59.846Z,20.00
2018-06-11T19:54:28.552Z,19.90
2018-06-11T19:56:56.935Z,19.80
2018-06-11T19:59:25.612Z,19.80
2018-06-11T20:01:54.492Z,19.80
2018-06-11T20:04:22.847Z,19.60
2018-06-11T20:06:51.208Z,19.60
2018-06-11T20:09:19.604Z,19.50
2018-06-11T20:11:48.251Z,19.60
2018-06-11T20:14:16.939Z,19.50
2018-06-11T20:16:45.936Z,19.50
2018-06-11T20:19:14.288Z,19.40
2018-06-11T20:21:42.668Z,19.30
2018-06-11T20:24:11.044Z,19.30
2018-06-11T20:26:39.755Z,19.20
2018-06-11T20:29:08.505Z,19.30
2018-06-11T20:31:37.224Z,19.20
2018-06-11T20:34:05.592Z,19.20
2018-06-11T20:36:34.295Z,19.20
2018-06-11T20:39:03.059Z,19.20
2018-06-11T20:41:32.254Z,19.20
2018-06-11T20:44:01.147Z,19.20
2018-06-11T20:46:29.807Z,19.20
2018-06-11T20:48:58.424Z,19.30
2018-06-11T20:51:27.175Z,19.20
2018-06-11T20:53:55.892Z,19.20
2018-06-11T20:56:24.304Z,19.30
2018-06-11T21:01:21.035Z,19.40
2018-06-11T21:03:49.421Z,19.40
2018-06-11T21:06:17.772Z,19.40
2018-06-11T21:08:46.752Z,19.40
2018-06-11T21:11:15.434Z,19.30
2018-06-11T21:13:43.784Z,19.30
2018-06-11T21:16:12.639Z,19.30
2018-06-11T21:18:41.008Z,19.20
2018-06-11T21:21:09.364Z,19.20
2018-06-11T21:23:37.825Z,19.30
2018-06-11T21:26:06.723Z,19.30
2018-06-11T21:28:35.316Z,19.40
2018-06-11T21:31:03.695Z,19.30
2018-06-11T21:33:32.055Z,19.30
2018-06-11T21:36:00.405Z,19.40
2018-06-11T21:38:29.436Z,19.40
2018-06-11T21:40:57.792Z,19.40
2018-06-11T21:43:26.423Z,19.30
2018-06-11T21:45:54.816Z,19.30
2018-06-11T21:48:23.166Z,19.40
2018-06-11T21:50:51.516Z,19.30
2018-06-11T21:53:20.163Z,19.30
2018-06-11T21:55:48.519Z,19.30
2018-06-11T21:58:16.899Z,19.40
2018-06-11T22:00:45.656Z,19.30
2018-06-11T22:03:14.064Z,19.30
2018-06-11T22:05:42.443Z,19.40
2018-06-11T22:08:10.844Z,19.30
2018-06-11T22:10:39.554Z,19.30
2018-06-11T22:13:08.159Z,19.30
2018-06-11T22:15:36.524Z,19.30
2018-06-11T22:18:05.547Z,19.20
2018-06-11T22:20:33.914Z,19.20
2018-06-11T22:23:02.296Z,19.20
2018-06-11T22:25:31.179Z,19.20
2018-06-11T22:27:59.535Z,19.10
2018-06-11T22:30:27.957Z,19.10
2018-06-11T22:35:24.999Z,19.10
2018-06-11T22:37:53.923Z,19.20
2018-06-11T22:40:22.299Z,19.10
2018-06-11T22:42:50.955Z,19.10
2018-06-11T22:45:19.344Z,19.20
2018-06-11T22:47:48.219Z,19.10
2018-06-11T22:50:16.620Z,19.20
2018-06-11T22:52:45.224Z,19.20
2018-06-11T22:55:13.911Z,19.20
2018-06-11T22:57:42.607Z,19.20
2018-06-11T23:00:11.295Z,19.10
2018-06-11T23:02:39.919Z,19.10
2018-06-11T23:05:08.538Z,19.00
2018-06-11T23:07:37.439Z,19.00
2018-06-11T23:10:05.827Z,19.00
2018-06-11T23:12:34.219Z,19.00
2018-06-11T23:15:02.572Z,19.00
2018-06-11T23:17:31.000Z,19.00
2018-06-11T23:19:59.358Z,19.00
2018-06-11T23:22:27.736Z,19.00
2018-06-11T23:24:56.611Z,19.00
2018-06-11T23:27:26.527Z,18.90
2018-06-11T23:29:54.891Z,19.00
2018-06-11T23:32:23.263Z,19.00
2018-06-11T23:34:51.619Z,19.00
2018-06-11T23:37:20.512Z,19.00
2018-06-11T23:39:49.501Z,19.00
2018-06-11T23:50:50.319Z,19.00
2018-06-11T23:53:19.031Z,19.00
2018-06-11T23:55:47.404Z,19.00
2018-06-11T23:58:15.798Z,19.00
